Time;durP1;ratioP1;P1;durP2;ratioP2;P2;SDS_P1;SDS_P2;PMS_P1;PMS_P2;Temp;Humidity;BMP_temperature;BMP_pressure;BME280_temperature;BME280_humidity;BME280_pressure;Samples;Min_cycle;Max_cycle;Signal;HPM_P1;HPM_P2
2022/05/29 00:01:57;;;;;;;12.40;2.35;;;12.90;99.90;;;;;;5057109;28;20103;-71
2022/05/29 00:04:24;;;;;;;10.57;2.17;;;13.00;99.90;;;;;;5056647;28;20041;-71
2022/05/29 00:06:54;;;;;;;8.68;2.17;;;13.00;99.90;;;;;;5039732;28;20048;-71
2022/05/29 00:09:25;;;;;;;13.13;2.47;;;13.00;99.90;;;;;;5039392;28;20049;-71
2022/05/29 00:11:51;;;;;;;11.73;2.45;;;12.90;99.90;;;;;;5056871;28;20072;-71
2022/05/29 00:14:17;;;;;;;11.55;1.98;;;12.90;99.90;;;;;;5056812;28;20044;-71
2022/05/29 00:16:43;;;;;;;12.73;2.05;;;12.90;99.90;;;;;;5056861;28;20049;-71
2022/05/29 00:19:09;;;;;;;6.72;1.80;;;12.90;99.90;;;;;;5038986;28;20076;-71
2022/05/29 00:21:36;;;;;;;18.20;2.58;;;12.80;99.90;;;;;;5057107;28;20045;-72
2022/05/29 00:24:02;;;;;;;17.75;2.92;;;12.80;99.90;;;;;;5038708;28;20045;-71
2022/05/29 00:26:28;;;;;;;12.15;2.25;;;12.90;99.90;;;;;;5056527;28;20084;-72
2022/05/29 00:28:54;;;;;;;17.40;2.55;;;12.80;99.90;;;;;;5039705;28;20081;-71
2022/05/29 00:31:19;;;;;;;17.33;2.65;;;12.90;99.90;;;;;;5038752;28;20056;-71
2022/05/29 00:33:45;;;;;;;15.98;3.13;;;13.00;99.90;;;;;;5056272;28;20045;-71
2022/05/29 00:36:14;;;;;;;22.20;3.63;;;12.80;99.90;;;;;;5056486;28;20124;-71
2022/05/29 00:38:42;;;;;;;16.90;3.75;;;12.50;99.90;;;;;;5056634;28;20049;-71
2022/05/29 00:41:17;;;;;;;15.77;3.10;;;12.20;99.90;;;;;;5038531;28;20053;-71
2022/05/29 00:44:02;;;;;;;16.83;3.55;;;12.30;99.90;;;;;;5056538;28;20049;-71
2022/05/29 00:46:30;;;;;;;19.85;3.58;;;12.50;99.90;;;;;;5038861;28;20132;-71
2022/05/29 00:48:55;;;;;;;9.60;2.28;;;12.50;99.90;;;;;;5056335;28;20092;-71
2022/05/29 00:51:23;;;;;;;16.02;2.95;;;12.60;99.90;;;;;;5056108;28;20048;-71
2022/05/29 00:53:49;;;;;;;12.93;2.88;;;12.70;99.90;;;;;;5055669;28;20041;-71
2022/05/29 00:56:15;;;;;;;16.63;3.50;;;12.70;99.90;;;;;;5022316;28;20052;-71
2022/05/29 00:58:42;;;;;;;16.77;2.85;;;12.60;99.90;;;;;;5038276;28;20045;-72
2022/05/29 01:01:08;;;;;;;16.55;3.38;;;12.70;99.90;;;;;;5038564;28;20123;-71
2022/05/29 01:03:33;;;;;;;20.15;3.03;;;12.70;99.90;;;;;;5021615;28;20107;-71
2022/05/29 01:05:59;;;;;;;17.23;3.60;;;12.80;99.90;;;;;;5038351;28;20573;-71
2022/05/29 01:08:29;;;;;;;11.73;2.80;;;12.80;99.90;;;;;;5055929;28;20060;-71
2022/05/29 01:11:28;;;;;;;16.92;3.03;;;12.80;99.90;;;;;;5036974;28;20049;-71
2022/05/29 01:14:00;;;;;;;15.55;3.35;;;12.80;99.90;;;;;;5037933;28;20045;-71
2022/05/29 01:16:49;;;;;;;19.38;3.30;;;12.80;99.90;;;;;;5055723;28;20084;-71
2022/05/29 01:19:21;;;;;;;16.42;3.47;;;12.70;99.90;;;;;;5055886;28;20095;-71
2022/05/29 01:21:58;;;;;;;21.92;3.70;;;12.70;99.90;;;;;;5055764;28;20092;-71
2022/05/29 01:24:45;;;;;;;16.95;3.15;;;12.70;99.90;;;;;;5037945;28;20103;-71
2022/05/29 01:27:39;;;;;;;15.32;3.10;;;12.80;99.90;;;;;;5037670;28;20402;-72
2022/05/29 01:30:21;;;;;;;18.73;3.22;;;12.80;99.90;;;;;;5055821;28;20044;-71
2022/05/29 01:33:12;;;;;;;24.75;3.50;;;12.70;99.90;;;;;;5037262;28;20059;-71
2022/05/29 01:36:02;;;;;;;16.33;3.00;;;12.30;99.90;;;;;;5021307;28;20131;-71
2022/05/29 01:38:40;;;;;;;14.60;2.53;;;12.20;99.90;;;;;;5055199;28;20490;-71
2022/05/29 01:41:18;;;;;;;10.45;2.17;;;12.30;99.90;;;;;;5037526;28;20053;-71
2022/05/29 01:44:03;;;;;;;8.90;2.47;;;12.40;99.90;;;;;;5055261;28;20064;-71
2022/05/29 01:46:34;;;;;;;19.70;3.00;;;12.40;99.90;;;;;;5055294;28;20132;-71
2022/05/29 01:49:27;;;;;;;13.98;2.63;;;12.60;99.90;;;;;;5055075;28;20052;-72
2022/05/29 01:52:01;;;;;;;10.80;2.78;;;12.70;99.90;;;;;;5055309;28;20045;-71
2022/05/29 01:54:30;;;;;;;14.88;2.97;;;12.70;99.90;;;;;;5055105;28;20055;-71
2022/05/29 01:57:03;;;;;;;14.00;2.88;;;12.80;99.90;;;;;;5055064;28;20048;-71
2022/05/29 01:59:58;;;;;;;17.77;3.38;;;12.80;99.90;;;;;;5054932;28;20441;-71
2022/05/29 02:02:33;;;;;;;13.20;2.80;;;12.90;99.90;;;;;;5037142;28;20123;-72
2022/05/29 02:05:03;;;;;;;17.23;3.00;;;12.90;99.90;;;;;;5020330;28;20103;-71
2022/05/29 02:07:50;;;;;;;18.13;3.05;;;12.90;99.90;;;;;;5055000;28;20045;-72
2022/05/29 02:10:43;;;;;;;16.25;3.05;;;12.90;99.90;;;;;;5020980;28;20055;-71
2022/05/29 02:13:17;;;;;;;19.58;3.42;;;13.00;99.90;;;;;;5054337;28;20084;-72
2022/05/29 02:16:02;;;;;;;10.23;2.72;;;13.00;99.90;;;;;;5054873;28;20049;-72
2022/05/29 02:18:46;;;;;;;13.25;3.17;;;12.90;99.90;;;;;;5054982;28;20139;-71
2022/05/29 02:21:19;;;;;;;14.63;2.92;;;13.00;99.90;;;;;;5036323;28;20049;-72
2022/05/29 02:23:49;;;;;;;14.98;2.88;;;13.00;99.90;;;;;;5054684;28;20045;-72
2022/05/29 02:26:20;;;;;;;10.18;2.75;;;13.00;99.90;;;;;;5054348;28;20048;-72
2022/05/29 02:28:52;;;;;;;10.30;2.40;;;13.10;99.90;;;;;;5054505;28;20041;-72
2022/05/29 02:31:27;;;;;;;13.60;3.20;;;13.20;99.90;;;;;;5054271;28;20564;-71
2022/05/29 02:34:03;;;;;;;10.38;2.50;;;13.20;99.90;;;;;;5035695;28;20055;-72
2022/05/29 02:36:32;;;;;;;10.98;2.50;;;13.20;99.90;;;;;;5054403;28;20080;-72
2022/05/29 02:39:16;;;;;;;9.88;2.42;;;13.20;99.90;;;;;;5054155;28;20132;-71
2022/05/29 02:41:42;;;;;;;11.32;2.42;;;13.10;99.90;;;;;;5036523;28;20064;-71
2022/05/29 02:44:21;;;;;;;19.02;3.00;;;13.10;99.90;;;;;;5019818;28;20053;-71
2022/05/29 02:46:57;;;;;;;7.47;2.25;;;13.10;99.90;;;;;;5054441;28;20053;-71
2022/05/29 02:49:36;;;;;;;16.40;3.35;;;12.90;99.90;;;;;;5036538;28;20142;-71
2022/05/29 02:52:09;;;;;;;17.88;2.72;;;12.80;99.90;;;;;;5053655;28;20681;-71
2022/05/29 02:54:35;;;;;;;14.70;2.50;;;12.70;99.90;;;;;;5036506;28;20130;-72
2022/05/29 02:57:02;;;;;;;19.00;3.08;;;12.70;99.90;;;;;;5053864;28;20090;-71
2022/05/29 02:59:36;;;;;;;21.08;2.70;;;12.60;99.90;;;;;;5036701;28;20088;-71
2022/05/29 03:02:35;;;;;;;13.50;2.53;;;12.40;99.90;;;;;;5036362;28;20049;-71
2022/05/29 03:05:25;;;;;;;12.95;2.53;;;12.40;99.90;;;;;;5035817;28;20045;-72
2022/05/29 03:08:21;;;;;;;12.48;3.03;;;12.10;99.90;;;;;;5053690;28;20063;-72
2022/05/29 03:11:03;;;;;;;13.82;2.78;;;12.10;99.90;;;;;;5053781;28;20417;-71
2022/05/29 03:13:47;;;;;;;9.90;2.60;;;11.90;99.90;;;;;;5053508;28;20132;-71
2022/05/29 03:16:49;;;;;;;13.80;2.53;;;12.00;99.90;;;;;;5053714;28;20053;-71
2022/05/29 03:19:44;;;;;;;18.65;3.03;;;12.10;99.90;;;;;;5044941;28;20080;-71
2022/05/29 03:22:46;;;;;;;20.85;3.00;;;12.20;99.90;;;;;;5035400;28;20494;-71
2022/05/29 03:25:27;;;;;;;10.82;2.67;;;12.10;99.90;;;;;;5030146;28;20605;-71
2022/05/29 03:27:56;;;;;;;15.25;2.70;;;12.10;99.90;;;;;;5053257;28;20052;-72
2022/05/29 03:30:23;;;;;;;12.70;2.78;;;12.20;99.90;;;;;;5035712;28;20088;-71
2022/05/29 03:32:52;;;;;;;10.68;1.92;;;12.30;99.90;;;;;;5052717;28;20098;-72
2022/05/29 03:35:21;;;;;;;14.88;2.40;;;12.30;99.90;;;;;;5019099;28;20398;-72
2022/05/29 03:37:46;;;;;;;15.68;3.10;;;12.50;99.90;;;;;;5053275;28;20056;-72
2022/05/29 03:40:13;;;;;;;16.05;2.50;;;12.40;99.90;;;;;;5035880;28;20060;-71
2022/05/29 03:42:38;;;;;;;12.10;2.13;;;12.40;99.90;;;;;;5052881;28;20048;-72
2022/05/29 03:45:05;;;;;;;19.92;2.95;;;12.50;99.90;;;;;;5053334;28;20048;-71
2022/05/29 03:47:31;;;;;;;13.15;2.53;;;12.50;99.90;;;;;;5035549;28;20055;-71
2022/05/29 03:49:56;;;;;;;14.23;2.45;;;12.60;99.90;;;;;;5053268;28;20150;-72
2022/05/29 03:52:22;;;;;;;11.93;1.83;;;12.60;99.90;;;;;;5052941;28;20045;-71
2022/05/29 03:54:47;;;;;;;15.50;2.53;;;12.40;99.90;;;;;;5035512;28;20505;-71
2022/05/29 03:57:13;;;;;;;11.70;2.10;;;12.40;99.90;;;;;;5035193;28;20059;-71
2022/05/29 03:59:39;;;;;;;13.40;1.70;;;12.30;99.90;;;;;;5053480;28;20136;-71
2022/05/29 04:02:05;;;;;;;11.95;2.38;;;12.30;99.90;;;;;;5053089;28;20052;-71
2022/05/29 04:04:30;;;;;;;9.82;2.40;;;12.40;99.90;;;;;;5018562;28;20049;-72
2022/05/29 04:06:56;;;;;;;11.05;1.55;;;12.50;99.90;;;;;;5051069;28;20049;-72
2022/05/29 04:12:07;;;;;;;15.65;2.50;;;12.30;99.90;;;;;;5053194;28;20045;-71
2022/05/29 04:14:37;;;;;;;12.80;2.03;;;12.40;99.90;;;;;;5035321;28;20477;-71
2022/05/29 04:17:03;;;;;;;8.95;1.98;;;12.40;99.90;;;;;;5035401;28;20055;-71
2022/05/29 04:19:29;;;;;;;16.63;2.20;;;12.40;99.90;;;;;;5035307;28;20052;-71
2022/05/29 04:21:54;;;;;;;14.00;2.28;;;12.30;99.90;;;;;;5053081;28;20045;-71
2022/05/29 04:24:20;;;;;;;14.93;2.10;;;12.30;99.90;;;;;;5052605;28;20100;-74
2022/05/29 04:26:48;;;;;;;22.10;2.45;;;12.40;99.90;;;;;;5052916;28;20041;-71
2022/05/29 04:29:14;;;;;;;12.88;1.90;;;12.40;99.90;;;;;;5053036;28;20048;-71
2022/05/29 04:32:59;;;;;;;14.45;2.30;;;12.40;99.90;;;;;;5035046;28;20077;-71
2022/05/29 04:34:26;;;;;;;17.48;2.97;;;12.40;99.90;;;;;;5052132;28;20131;-71
2022/05/29 04:36:52;;;;;;;18.35;2.10;;;12.40;99.90;;;;;;5052562;28;20124;-72
2022/05/29 04:39:17;;;;;;;15.70;2.55;;;12.30;99.90;;;;;;5034823;28;20477;-71
2022/05/29 04:41:43;;;;;;;16.50;2.63;;;12.40;99.90;;;;;;5035123;28;20049;-71
2022/05/29 04:44:08;;;;;;;17.67;2.40;;;12.20;99.90;;;;;;5052822;28;20136;-71
2022/05/29 04:46:34;;;;;;;12.48;2.15;;;12.10;99.90;;;;;;5038733;28;20098;-71
2022/05/29 04:49:00;;;;;;;17.15;2.80;;;12.00;99.90;;;;;;5056397;28;20048;-71
2022/05/29 04:51:25;;;;;;;15.68;3.10;;;12.00;99.90;;;;;;5056099;28;20086;-71
2022/05/29 04:53:51;;;;;;;20.08;2.92;;;12.00;99.90;;;;;;5038197;28;20055;-71
2022/05/29 04:56:17;;;;;;;23.65;2.88;;;12.10;99.90;;;;;;5055977;28;20056;-71
2022/05/29 04:58:42;;;;;;;15.77;2.75;;;12.00;99.90;;;;;;5055963;28;20045;-71
2022/05/29 05:01:10;;;;;;;13.40;2.20;;;12.10;99.90;;;;;;5055985;28;20045;-71
2022/05/29 05:03:36;;;;;;;14.27;2.78;;;12.10;99.90;;;;;;5038196;28;20052;-71
2022/05/29 05:06:02;;;;;;;19.67;2.80;;;12.20;99.90;;;;;;5056076;28;20048;-72
2022/05/29 05:08:28;;;;;;;15.25;2.58;;;12.40;99.90;;;;;;5038417;28;20056;-71
2022/05/29 05:10:54;;;;;;;12.48;2.20;;;12.40;99.90;;;;;;5055757;28;20084;-71
2022/05/29 05:13:20;;;;;;;16.92;2.60;;;12.40;99.90;;;;;;5038133;28;20088;-71
2022/05/29 05:15:46;;;;;;;17.85;3.38;;;12.50;99.90;;;;;;5038258;28;20108;-71
2022/05/29 05:18:11;;;;;;;20.83;3.20;;;12.50;99.90;;;;;;5055855;28;20171;-72
2022/05/29 05:20:38;;;;;;;18.20;2.60;;;12.60;99.90;;;;;;5055499;28;20478;-71
2022/05/29 05:23:04;;;;;;;20.77;2.90;;;12.70;99.90;;;;;;5055819;28;20137;-71
2022/05/29 05:25:30;;;;;;;15.63;2.20;;;12.90;99.90;;;;;;5037973;28;20183;-71
2022/05/29 05:27:55;;;;;;;17.15;2.92;;;12.90;99.90;;;;;;5037907;28;20131;-71
2022/05/29 05:30:21;;;;;;;11.95;2.15;;;13.00;99.90;;;;;;5055634;28;20056;-71
2022/05/29 05:32:47;;;;;;;15.02;2.22;;;13.00;99.90;;;;;;5037803;28;20059;-71
2022/05/29 05:35:13;;;;;;;17.27;2.45;;;13.00;99.90;;;;;;5055007;28;20482;-71
2022/05/29 05:37:39;;;;;;;17.13;2.45;;;12.90;99.90;;;;;;5055412;28;20114;-72
2022/05/29 05:40:12;;;;;;;17.33;2.42;;;12.90;99.90;;;;;;5055373;28;20060;-71
2022/05/29 05:42:38;;;;;;;13.73;2.33;;;12.80;99.90;;;;;;5055297;28;20493;-71
2022/05/29 05:45:10;;;;;;;17.45;2.95;;;12.70;99.90;;;;;;5055331;28;20099;-71
2022/05/29 05:47:36;;;;;;;21.35;2.95;;;12.60;99.90;;;;;;5037674;28;20057;-71
2022/05/29 05:50:04;;;;;;;14.10;2.58;;;12.30;99.90;;;;;;5054953;28;20067;-71
2022/05/29 05:52:30;;;;;;;16.92;2.90;;;12.20;99.90;;;;;;5054891;28;20055;-71
2022/05/29 05:54:55;;;;;;;26.00;3.15;;;12.20;99.90;;;;;;5037361;28;20081;-71
2022/05/29 05:57:21;;;;;;;13.18;2.20;;;12.30;99.90;;;;;;5054179;28;20072;-71
2022/05/29 05:59:47;;;;;;;19.15;2.75;;;12.40;99.90;;;;;;5055007;28;20051;-71
2022/05/29 06:02:14;;;;;;;19.27;2.92;;;12.50;99.90;;;;;;5055129;28;20378;-71
2022/05/29 06:04:41;;;;;;;20.20;3.10;;;12.60;99.90;;;;;;5036540;28;20563;-71
2022/05/29 06:07:08;;;;;;;20.65;3.15;;;12.60;99.90;;;;;;5055038;28;20053;-71
2022/05/29 06:09:35;;;;;;;14.25;2.45;;;12.80;99.90;;;;;;5054734;28;20053;-71
2022/05/29 06:12:02;;;;;;;15.95;2.28;;;12.80;99.90;;;;;;5037197;28;20105;-71
2022/05/29 06:14:29;;;;;;;19.30;2.90;;;12.80;99.90;;;;;;5054495;28;20044;-71
2022/05/29 06:16:54;;;;;;;20.70;2.60;;;12.80;99.90;;;;;;5054512;28;20045;-72
2022/05/29 06:19:20;;;;;;;18.23;2.60;;;12.80;99.90;;;;;;5036910;28;20522;-71
2022/05/29 06:21:46;;;;;;;17.50;2.90;;;12.80;99.90;;;;;;5036963;28;20041;-71
2022/05/29 06:24:11;;;;;;;15.48;2.03;;;12.80;99.90;;;;;;5036986;28;20055;-71
2022/05/29 06:26:37;;;;;;;19.67;2.80;;;12.90;99.90;;;;;;5036840;28;20059;-71
2022/05/29 06:29:02;;;;;;;17.17;2.45;;;13.10;99.90;;;;;;5054521;28;20048;-71
2022/05/29 06:31:28;;;;;;;15.38;2.10;;;13.20;99.90;;;;;;5036528;28;20094;-71
2022/05/29 06:33:55;;;;;;;16.42;1.75;;;13.10;99.90;;;;;;5053697;28;20045;-71
2022/05/29 06:36:25;;;;;;;13.00;1.60;;;13.00;99.90;;;;;;5054141;28;20144;-71
2022/05/29 06:38:53;;;;;;;16.33;2.38;;;12.80;99.90;;;;;;5036230;28;20092;-71
2022/05/29 06:41:21;;;;;;;13.05;2.00;;;12.70;99.90;;;;;;5036712;28;20055;-71
2022/05/29 06:43:48;;;;;;;16.38;2.63;;;12.70;99.90;;;;;;5036423;28;20061;-71
2022/05/29 06:46:14;;;;;;;14.68;2.20;;;12.70;99.90;;;;;;5054147;28;20041;-71
2022/05/29 06:48:40;;;;;;;12.20;1.80;;;12.90;99.90;;;;;;5036463;28;20049;-71
2022/05/29 06:51:15;;;;;;;11.60;1.58;;;13.10;99.90;;;;;;5054155;28;20048;-71
2022/05/29 06:53:41;;;;;;;10.90;1.58;;;13.00;99.90;;;;;;5035962;28;20044;-71
2022/05/29 06:56:09;;;;;;;10.93;1.25;;;12.90;99.90;;;;;;5036119;28;20106;-71
2022/05/29 06:58:35;;;;;;;11.30;1.50;;;12.90;99.90;;;;;;5036336;28;20045;-72
2022/05/29 07:07:00;;;;;;;11.15;1.67;;;12.90;99.90;;;;;;5053661;28;20135;-71
2022/05/29 07:09:39;;;;;;;8.27;1.48;;;13.00;99.90;;;;;;5052800;28;20131;-71
2022/05/29 07:12:27;;;;;;;12.57;1.50;;;12.90;99.90;;;;;;5036360;28;20056;-71
2022/05/29 07:14:58;;;;;;;14.50;2.10;;;12.70;99.90;;;;;;5053457;28;20498;-71
2022/05/29 07:17:24;;;;;;;10.05;1.65;;;12.90;99.90;;;;;;5053564;28;20106;-72
2022/05/29 07:19:50;;;;;;;12.98;1.98;;;13.00;99.90;;;;;;5053386;28;20410;-71
2022/05/29 07:22:16;;;;;;;14.68;1.88;;;13.20;99.90;;;;;;5053631;28;20041;-71
2022/05/29 07:24:43;;;;;;;13.90;2.10;;;13.30;99.90;;;;;;5053861;28;20371;-71
2022/05/29 07:27:09;;;;;;;8.82;1.55;;;13.10;99.90;;;;;;5035841;28;20397;-71
2022/05/29 07:29:35;;;;;;;13.13;1.90;;;13.00;99.90;;;;;;5035843;28;20045;-69
2022/05/29 07:32:01;;;;;;;13.95;1.33;;;13.00;99.90;;;;;;5052965;28;20044;-72
2022/05/29 07:34:28;;;;;;;7.93;1.20;;;12.90;99.90;;;;;;5053000;28;20136;-71
2022/05/29 07:37:00;;;;;;;12.10;1.65;;;12.80;99.90;;;;;;5054238;28;20052;-70
2022/05/29 07:39:26;;;;;;;15.00;1.45;;;12.90;99.90;;;;;;5056260;28;20063;-70
2022/05/29 07:44:35;;;;;;;9.13;1.38;;;13.10;99.90;;;;;;5053061;28;20504;-68
2022/05/29 07:47:01;;;;;;;8.52;1.00;;;13.00;99.90;;;;;;5053359;28;20132;-68
2022/05/29 07:49:27;;;;;;;9.80;1.00;;;13.10;99.90;;;;;;5053112;28;20092;-68
2022/05/29 07:51:52;;;;;;;7.00;0.95;;;13.30;99.90;;;;;;5035999;28;20134;-68
2022/05/29 07:54:20;;;;;;;7.03;1.35;;;13.20;99.90;;;;;;5053062;28;20045;-68
2022/05/29 07:56:46;;;;;;;8.45;0.93;;;13.30;99.90;;;;;;5053103;28;20096;-68
2022/05/29 07:59:14;;;;;;;7.93;0.98;;;13.30;99.90;;;;;;5052827;28;20138;-68
2022/05/29 08:01:40;;;;;;;7.53;0.95;;;13.40;99.90;;;;;;5035606;28;20052;-70
2022/05/29 08:04:05;;;;;;;8.02;0.98;;;13.50;99.90;;;;;;5034956;28;20048;-69
2022/05/29 08:06:31;;;;;;;5.80;1.10;;;13.60;99.90;;;;;;5053099;28;20045;-69
2022/05/29 08:08:57;;;;;;;6.05;0.75;;;13.80;99.90;;;;;;5052920;28;20089;-68
2022/05/29 08:11:22;;;;;;;6.25;0.80;;;13.70;99.90;;;;;;5035506;28;20053;-69
2022/05/29 08:13:48;;;;;;;7.40;0.90;;;13.40;99.90;;;;;;5052656;28;20045;-69
2022/05/29 08:16:16;;;;;;;5.50;0.75;;;13.20;99.90;;;;;;5052815;28;20045;-69
2022/05/29 08:18:43;;;;;;;9.40;0.80;;;13.00;99.90;;;;;;5053100;28;20053;-68
2022/05/29 08:21:08;;;;;;;6.22;0.90;;;12.90;99.90;;;;;;5056273;28;20049;-68
2022/05/29 08:23:35;;;;;;;9.80;0.98;;;12.90;99.90;;;;;;5063865;28;20041;-68
2022/05/29 08:31:29;;;;;;;9.65;0.90;;;13.10;99.90;;;;;;5056545;28;20074;-68
2022/05/29 08:33:55;;;;;;;9.10;1.13;;;13.30;99.90;;;;;;5038040;28;20482;-69
2022/05/29 08:36:24;;;;;;;9.27;1.00;;;13.30;99.90;;;;;;5056384;28;20056;-69
2022/05/29 08:38:52;;;;;;;7.65;1.20;;;13.40;99.90;;;;;;5056195;28;20056;-69
2022/05/29 08:41:37;;;;;;;9.30;1.25;;;13.30;99.90;;;;;;5066420;28;20489;-68
2022/05/29 08:44:06;;;;;;;13.13;1.42;;;13.00;99.90;;;;;;5076287;28;20102;-68
2022/05/29 08:46:39;;;;;;;9.07;1.30;;;12.90;99.90;;;;;;5075885;28;20119;-68
2022/05/29 08:49:06;;;;;;;8.20;1.23;;;13.00;99.90;;;;;;5076239;28;20040;-68
2022/05/29 08:52:07;;;;;;;9.30;1.33;;;13.10;99.90;;;;;;5076061;28;20163;-68
2022/05/29 08:54:47;;;;;;;13.50;1.83;;;13.20;99.90;;;;;;5076216;28;20053;-68
2022/05/29 08:57:44;;;;;;;11.13;1.58;;;13.40;99.90;;;;;;5075846;28;20127;-69
2022/05/29 09:00:28;;;;;;;13.65;1.63;;;13.30;99.90;;;;;;5075021;28;20130;-70
2022/05/29 09:03:25;;;;;;;13.93;1.60;;;13.20;99.90;;;;;;5075921;28;20037;-71
2022/05/29 09:05:56;;;;;;;15.02;1.65;;;13.30;99.90;;;;;;5058239;28;20400;-71
2022/05/29 09:08:30;;;;;;;12.15;1.35;;;13.30;99.90;;;;;;5058050;28;20435;-71
2022/05/29 09:11:05;;;;;;;7.53;0.85;;;13.20;99.90;;;;;;5075852;28;20048;-71
2022/05/29 09:13:39;;;;;;;10.77;0.83;;;13.00;99.90;;;;;;5057748;28;20053;-71
2022/05/29 09:16:18;;;;;;;3.92;0.82;;;13.10;99.90;;;;;;5056847;28;20458;-70
2022/05/29 09:19:00;;;;;;;3.38;0.85;;;13.20;99.90;;;;;;5056765;28;20048;-70
2022/05/29 09:21:39;;;;;;;7.80;1.00;;;13.40;99.90;;;;;;5037917;28;20053;-71
2022/05/29 09:24:18;;;;;;;5.63;0.73;;;13.50;99.90;;;;;;5074803;28;20032;-71
2022/05/29 09:26:44;;;;;;;8.00;0.90;;;13.70;99.90;;;;;;5074276;28;20084;-71
2022/05/29 09:29:11;;;;;;;7.82;0.88;;;13.60;99.90;;;;;;5075461;28;20079;-70
2022/05/29 09:31:39;;;;;;;7.30;1.30;;;13.50;99.90;;;;;;5074143;28;20048;-71
2022/05/29 09:34:05;;;;;;;8.00;0.95;;;13.60;99.90;;;;;;5074051;28;20121;-71
2022/05/29 09:36:52;;;;;;;8.38;1.23;;;13.60;99.90;;;;;;5075224;28;20048;-71
2022/05/29 09:39:38;;;;;;;11.60;1.65;;;13.50;99.90;;;;;;5074892;28;20060;-69
2022/05/29 09:42:09;;;;;;;9.63;1.63;;;13.70;99.90;;;;;;5058001;28;20049;-72
2022/05/29 09:44:35;;;;;;;7.35;1.65;;;13.90;99.90;;;;;;5057316;28;20481;-70
2022/05/29 09:50:09;;;;;;;6.65;1.10;;;13.80;99.90;;;;;;5074414;28;20060;-71
2022/05/29 09:52:40;;;;;;;10.70;1.33;;;13.80;99.90;;;;;;5074768;28;20091;-71
2022/05/29 09:55:30;;;;;;;8.02;1.30;;;13.70;99.90;;;;;;5057106;28;20098;-71
2022/05/29 09:58:01;;;;;;;10.88;1.45;;;13.70;99.90;;;;;;5075108;28;20124;-71
2022/05/29 10:00:31;;;;;;;9.88;1.20;;;13.80;99.90;;;;;;5074921;28;20136;-71
2022/05/29 10:02:59;;;;;;;9.00;1.13;;;13.90;99.90;;;;;;5074939;28;20052;-71
2022/05/29 10:05:33;;;;;;;7.30;1.25;;;14.00;99.90;;;;;;5074087;28;20110;-71
2022/05/29 10:08:16;;;;;;;7.75;1.17;;;14.10;99.90;;;;;;5057345;28;20049;-71
2022/05/29 10:10:42;;;;;;;11.48;1.08;;;14.30;99.90;;;;;;5054481;28;20056;-71
2022/05/29 10:13:08;;;;;;;9.55;1.00;;;14.40;99.90;;;;;;5054574;28;20045;-71
2022/05/29 10:15:42;;;;;;;7.75;1.23;;;14.30;99.90;;;;;;5054606;28;20470;-71
2022/05/29 10:18:42;;;;;;;7.65;1.27;;;14.30;99.90;;;;;;5036699;28;20486;-70
2022/05/29 10:21:42;;;;;;;7.88;1.02;;;14.40;99.90;;;;;;5054140;28;20111;-71
2022/05/29 10:24:40;;;;;;;13.02;1.27;;;14.20;99.90;;;;;;5014918;28;20053;-71
2022/05/29 10:27:35;;;;;;;10.55;1.80;;;14.30;99.90;;;;;;5054344;28;20040;-70
2022/05/29 10:30:24;;;;;;;5.13;0.90;;;14.20;99.90;;;;;;5036699;28;20048;-71
2022/05/29 10:33:04;;;;;;;11.43;1.27;;;14.10;99.90;;;;;;5036352;28;20047;-71
2022/05/29 10:35:37;;;;;;;9.93;1.38;;;14.00;99.90;;;;;;5053758;28;20048;-72
2022/05/29 10:38:19;;;;;;;15.60;1.35;;;13.90;99.90;;;;;;5053931;28;20485;-70
2022/05/29 10:40:47;;;;;;;11.18;1.50;;;13.70;99.90;;;;;;5060895;28;20052;-70
2022/05/29 10:43:40;;;;;;;7.80;1.05;;;13.60;99.90;;;;;;5067964;28;20064;-72
2022/05/29 10:46:18;;;;;;;6.90;0.98;;;13.70;99.90;;;;;;5052481;28;20106;-71
2022/05/29 10:48:47;;;;;;;5.90;0.95;;;14.00;99.90;;;;;;5035240;28;20044;-80
2022/05/29 10:51:35;;;;;;;9.70;1.27;;;14.30;99.90;;;;;;5067964;28;20094;-73
2022/05/29 10:54:31;;;;;;;6.63;0.90;;;14.70;99.90;;;;;;5064657;28;20094;-72
2022/05/29 10:57:33;;;;;;;6.75;0.98;;;14.80;99.90;;;;;;5053981;28;20545;-75
2022/05/29 10:59:59;;;;;;;8.85;0.90;;;14.80;99.90;;;;;;5040281;28;20061;-72
2022/05/29 11:05:34;;;;;;;6.25;1.50;;;14.10;99.90;;;;;;5034038;28;20443;-75
2022/05/29 11:08:33;;;;;;;11.30;2.28;;;14.10;99.90;;;;;;5053887;28;20190;-70
2022/05/29 11:11:17;;;;;;;9.23;1.10;;;14.20;99.90;;;;;;5055714;28;20051;-74
2022/05/29 11:13:49;;;;;;;8.90;1.02;;;14.20;99.90;;;;;;5036448;28;20049;-73
2022/05/29 11:16:45;;;;;;;11.65;1.10;;;13.80;99.90;;;;;;5053712;28;20053;-71
2022/05/29 11:19:17;;;;;;;5.03;1.00;;;13.80;99.90;;;;;;5035866;28;20512;-85
2022/05/29 11:22:20;;;;;;;8.85;1.10;;;13.80;99.90;;;;;;5035983;28;20513;-86
2022/05/29 11:25:15;;;;;;;9.43;1.10;;;13.60;99.90;;;;;;5053562;28;20052;-71
2022/05/29 11:28:19;;;;;;;10.50;1.67;;;13.80;99.90;;;;;;5024916;28;20053;-71
2022/05/29 11:31:00;;;;;;;8.60;1.25;;;14.00;99.90;;;;;;5053575;28;20410;-71
2022/05/29 11:33:46;;;;;;;6.53;1.15;;;13.90;99.90;;;;;;5053636;28;20052;-72
2022/05/29 11:36:36;;;;;;;13.03;1.87;;;14.00;99.90;;;;;;5025396;28;20056;-70
2022/05/29 11:39:24;;;;;;;10.07;1.10;;;14.10;99.90;;;;;;5070382;28;20517;-70
2022/05/29 11:42:07;;;;;;;12.13;1.23;;;14.10;99.90;;;;;;5035814;28;20053;-70
2022/05/29 11:45:00;;;;;;;10.50;1.25;;;14.20;99.90;;;;;;5053067;28;20045;-70
2022/05/29 11:53:28;;;;;;;10.55;1.50;;;14.70;99.90;;;;;;5053409;28;20052;-70
2022/05/29 11:55:58;;;;;;;12.25;1.20;;;14.80;99.90;;;;;;5038744;28;20469;-70
2022/05/29 11:58:46;;;;;;;8.48;1.42;;;14.80;99.90;;;;;;5057080;28;20044;-70
2022/05/29 12:01:39;;;;;;;10.43;1.42;;;14.60;99.90;;;;;;5039496;28;20056;-70
2022/05/29 12:04:32;;;;;;;13.25;1.60;;;14.40;99.90;;;;;;5057222;28;20081;-71
2022/05/29 12:07:09;;;;;;;13.82;1.65;;;14.40;99.90;;;;;;5056761;28;20137;-70
2022/05/29 12:10:03;;;;;;;16.33;1.70;;;14.30;99.90;;;;;;5062283;28;20090;-73
2022/05/29 12:12:38;;;;;;;14.05;1.50;;;14.30;99.90;;;;;;5055235;28;20186;-72
2022/05/29 12:15:09;;;;;;;17.07;2.43;;;14.40;99.90;;;;;;5065128;28;20049;-71
2022/05/29 12:17:38;;;;;;;8.07;1.15;;;14.60;99.90;;;;;;5058923;28;20076;-71
2022/05/29 12:20:14;;;;;;;11.68;1.40;;;14.60;99.90;;;;;;5076612;28;20048;-71
2022/05/29 12:22:47;;;;;;;13.38;1.48;;;14.10;99.90;;;;;;5076920;28;20045;-71
2022/05/29 12:25:48;;;;;;;16.88;1.65;;;13.80;99.90;;;;;;5058963;28;20074;-70
2022/05/29 12:28:52;;;;;;;14.82;2.15;;;13.50;99.90;;;;;;5056170;28;20158;-74
2022/05/29 12:31:33;;;;;;;10.30;1.35;;;13.50;99.90;;;;;;5056533;28;20505;-71
2022/05/29 12:33:59;;;;;;;11.73;1.40;;;13.60;99.90;;;;;;5066853;28;20040;-70
2022/05/29 12:36:57;;;;;;;12.90;1.60;;;13.50;99.90;;;;;;5058830;28;20052;-70
2022/05/29 12:39:48;;;;;;;9.95;1.42;;;13.20;99.90;;;;;;5031390;28;20092;-70
2022/05/29 12:42:22;;;;;;;9.23;1.40;;;13.10;99.90;;;;;;5076569;28;20049;-70
2022/05/29 12:45:15;;;;;;;10.52;1.25;;;13.40;99.90;;;;;;5058136;28;20049;-70
2022/05/29 12:47:57;;;;;;;9.52;1.30;;;13.60;99.90;;;;;;5056604;28;20072;-71
2022/05/29 12:50:58;;;;;;;10.77;1.33;;;14.00;99.90;;;;;;5056089;28;20393;-71
2022/05/29 12:53:43;;;;;;;10.00;1.50;;;14.30;99.90;;;;;;4968130;28;20138;-71
2022/05/29 12:56:40;;;;;;;8.85;1.10;;;14.50;99.90;;;;;;5056286;28;20458;-70
2022/05/29 12:59:24;;;;;;;;;;;14.70;99.90;;;;;;5056410;28;20064;-70
2022/05/29 13:02:26;;;;;;;7.60;1.58;;;15.00;99.90;;;;;;5056282;28;20281;-71
2022/05/29 13:05:27;;;;;;;11.48;1.35;;;15.10;99.90;;;;;;5066418;28;20175;-70
2022/05/29 13:08:30;;;;;;;8.98;1.20;;;15.20;99.90;;;;;;5055562;28;20052;-71
2022/05/29 13:11:00;;;;;;;12.13;1.50;;;15.40;99.90;;;;;;5055647;28;20045;-71
2022/05/29 13:13:41;;;;;;;13.25;1.27;;;15.60;99.90;;;;;;5038089;28;20102;-71
2022/05/29 13:16:32;;;;;;;7.85;1.42;;;15.40;99.90;;;;;;5055549;28;20085;-71
2022/05/29 13:19:14;;;;;;;10.50;1.63;;;15.20;99.90;;;;;;5038835;28;20592;-71
2022/05/29 13:21:59;;;;;;;12.80;1.75;;;15.00;99.90;;;;;;5055090;28;20508;-71
2022/05/29 13:24:30;;;;;;;10.65;1.70;;;14.80;99.90;;;;;;5055269;28;20044;-70
2022/05/29 13:27:17;;;;;;;9.15;1.38;;;14.70;99.90;;;;;;5055614;28;20103;-71
2022/05/29 13:29:54;;;;;;;;;;;14.80;99.90;;;;;;5056011;28;20375;-71
2022/05/29 13:32:29;;;;;;;11.52;1.67;;;14.80;99.90;;;;;;5037727;28;19976;-71
2022/05/29 13:35:04;;;;;;;12.77;1.50;;;15.00;99.90;;;;;;5055982;28;20115;-73
2022/05/29 13:37:32;;;;;;;9.73;1.63;;;15.10;99.90;;;;;;5074940;28;20055;-71
2022/05/29 13:40:29;;;;;;;11.80;2.03;;;15.00;99.90;;;;;;5074476;28;20531;-70
2022/05/29 13:43:21;;;;;;;13.50;1.52;;;15.10;99.90;;;;;;5047332;28;20052;-70
2022/05/29 13:45:56;;;;;;;6.53;1.17;;;15.00;99.90;;;;;;5075236;28;20478;-71
2022/05/29 13:48:27;;;;;;;13.55;2.00;;;14.60;99.90;;;;;;5057659;28;20562;-71